CheckWX is a tool to help pilots better visualize weather data.  It is not intended as a substitute for an official pre-flight weather briefing.

17:27:13 UTC

GMML METAR
Hassan I Airport
El Aaiún, Western Sahara
Current

27 mins ago

GMML 241700Z 35014KT 8000 NSC 21/13 Q1009 NOSIG
Observed
Mar-24 @ 17:00 UTC
Wind
  • 350° at 14 KTS
Visibility
7,998 meters
Flight Rules
MVFR
Cloud Levels
  • Clear skies
Temperature
21°C / 70°F
Dewpoint
13°C / 55°F
Humidity
60%
Altimeter
29.79" Hg
Pressure
1008.92 hPa
Previous

1 hour ago

GMML 241600Z 34020KT 7000 NSC 22/14 Q1009 NOSIG
Observed
Mar-24 @ 16:00 UTC
Wind
  • 340° at 20 KTS
Visibility
7,001 meters
Flight Rules
MVFR
Cloud Levels
  • Clear skies
Temperature
22°C / 72°F
Dewpoint
14°C / 57°F
Humidity
61%
Altimeter
29.79" Hg
Pressure
1008.92 hPa
Previous

2 hours ago

GMML 241500Z 35015KT 8000 NSC 24/14 Q1009 NOSIG
Observed
Mar-24 @ 15:00 UTC
Wind
  • 350° at 15 KTS
Visibility
7,998 meters
Flight Rules
MVFR
Cloud Levels
  • Clear skies
Temperature
24°C / 75°F
Dewpoint
14°C / 57°F
Humidity
54%
Altimeter
29.79" Hg
Pressure
1008.92 hPa